Aérodrome :
LOGIN :

S'inscrire | Disclaimer

   EN    FR    IT 

 










Légende :    VFR   VFR Marginal   IFR   IFR Intensif   IFR Très Intensif
Visi : 
Plafond : 
>= 8 km
>= 3000ft
5 à 8 km
1000 à 3000 ft
1500m à 5 km
500 à 1000 ft
800 à 1500m
200 à 500 ft
< 800m
< 200 ft
Symboles :   Orages  Brouillard  Fortes neiges  Fortes précipitations  Vent > 20 kt
SIGMETs :   Divers  Orages  Givrage  Turbulence  Onde Orograph.  Cendres Volcan.






- Altitude de l'aérodrome : 284 ft


EGUW - RAF Wattisham

DERNIER METAR :
  • 281121Z 17014KT 9999 -RA BKN018 OVC030 05/03 Q1007 RERA TEMPO 6000 RA SCT012 RMK WHT TEMPO GRN

METARs EXPIRÉS :
  • 281050Z 19013G26KT 9999 RA SCT015 OVC035 05/03 Q1008 TEMPO 6000 SCT012 RMK WHT TEMPO GRN
  • 281034Z 19011KT 9999 -RA SCT019 OVC038 05/02 Q1009 TEMPO 6000 RA SCT012 RMK WHT TEMPO GRN
  • 281020Z 19012KT 9999 -RA FEW021 BKN040 OVC080 05/02 Q1009 BECMG BKN020 RMK BLU BECMG WHT
  • 280950Z 18010KT 9999 -RA FEW022 SCT030 OVC080 05/02 Q1010 BECMG SCT022 RMK BLU BECMG WHT
  • 280920Z 17010KT 9999 FEW021 SCT035 OVC090 04/01 Q1010 NOSIG RMK BLU BLU
  • 280850Z 16007KT 9999 FEW030 OVC100 03/00 Q1011 NOSIG RMK BLU BLU

TAF TAF EGUW
Valide du 28 à 12h jusqu'au 28 à 19h UTC


281015Z 2812/2819 17018G28KT 9999 SCT020
BECMG 2812/2814 BKN010
TEMPO 2812/2819 6000 -RADZ
PROB40
TEMPO 2812/2819 3000 RADZ BKN004



MET'MAP, la Météo Aéronautique d'un coup d'oeil ! - Copyright ORBIFLY Décembre 2007 - Disclaimer

ORBIFLY MET'MAP TEAM :

Programmation & Développement : Alexandra Zaïnal
Sur une idée originale de : Baudouin d'Aumeries
Assistance à la programmation : Marc-Olivier Méhu
Soutien technique & logistique : Manuel Goepfert

Contact : metmap@orbifly.com




SOURCES & CREDITS :

   NOAA